createdAt,value
2018-03-24T00:02:13.238Z,28.80
2018-03-24T00:04:41.599Z,32.90
2018-03-24T00:07:10.674Z,27.30
2018-03-24T00:09:39.778Z,30.77
2018-03-24T00:12:08.858Z,27.27
2018-03-24T00:14:37.978Z,28.93
2018-03-24T00:17:06.303Z,31.20
2018-03-24T00:19:34.626Z,29.27
2018-03-24T00:22:03.696Z,29.00
2018-03-24T00:24:32.101Z,27.13
2018-03-24T00:27:00.429Z,26.93
2018-03-24T00:29:28.766Z,31.67
2018-03-24T00:31:57.090Z,28.93
2018-03-24T00:34:25.437Z,28.93
2018-03-24T00:36:53.754Z,28.37
2018-03-24T00:39:22.170Z,30.50
2018-03-24T00:41:51.885Z,30.23
2018-03-24T00:44:20.890Z,28.33
2018-03-24T00:46:49.186Z,29.00
2018-03-24T00:49:17.554Z,27.77
2018-03-24T00:51:45.874Z,29.93
2018-03-24T00:54:14.368Z,31.70
2018-03-24T00:56:43.449Z,27.53
2018-03-24T00:59:11.802Z,29.73
2018-03-24T01:01:40.108Z,28.87
2018-03-24T01:04:09.202Z,27.27
2018-03-24T01:06:38.322Z,31.13
2018-03-24T01:09:06.661Z,26.87
2018-03-24T01:11:34.994Z,30.60
2018-03-24T01:14:03.297Z,27.37
2018-03-24T01:16:31.634Z,29.53
2018-03-24T01:18:59.942Z,30.40
2018-03-24T01:21:28.279Z,27.57
2018-03-24T01:23:57.374Z,28.57
2018-03-24T01:26:26.778Z,27.90
2018-03-24T01:28:55.859Z,32.10
2018-03-24T01:31:24.971Z,27.20
2018-03-24T01:33:53.336Z,29.57
2018-03-24T01:36:22.449Z,25.23
2018-03-24T01:38:50.758Z,27.10
2018-03-24T01:41:19.101Z,30.20
2018-03-24T01:43:47.411Z,29.50
2018-03-24T01:46:15.759Z,29.73
2018-03-24T01:48:44.082Z,32.07
2018-03-24T01:51:12.447Z,29.50
2018-03-24T01:53:52.653Z,27.30
2018-03-24T01:56:21.345Z,30.60
2018-03-24T01:58:49.926Z,31.53
2018-03-24T02:01:18.402Z,31.80
2018-03-24T02:03:47.549Z,28.70
2018-03-24T02:06:16.658Z,32.83
2018-03-24T02:08:45.009Z,30.10
2018-03-24T02:11:13.323Z,29.53
2018-03-24T02:13:41.694Z,31.23
2018-03-24T02:16:10.842Z,29.83
2018-03-24T02:18:39.187Z,30.40
2018-03-24T02:21:09.110Z,31.60
2018-03-24T02:23:37.470Z,31.57
2018-03-24T02:26:05.777Z,33.90
2018-03-24T02:28:34.150Z,31.67
2018-03-24T02:31:03.244Z,32.57
2018-03-24T02:33:32.361Z,34.37
2018-03-24T02:36:00.815Z,28.63
2018-03-24T02:38:29.926Z,34.53
2018-03-24T02:40:58.231Z,30.73
2018-03-24T02:43:26.574Z,32.67
2018-03-24T02:45:54.890Z,28.97
2018-03-24T02:48:23.326Z,29.93
2018-03-24T02:50:52.420Z,32.77
2018-03-24T02:53:20.772Z,34.07
2018-03-24T02:55:49.892Z,30.57
2018-03-24T02:58:18.234Z,29.70
2018-03-24T03:00:46.546Z,31.63
2018-03-24T03:03:14.919Z,33.07
2018-03-24T03:05:43.995Z,32.30
2018-03-24T03:08:13.084Z,32.03
2018-03-24T03:10:41.418Z,30.03
2018-03-24T03:13:09.736Z,33.70
2018-03-24T03:15:38.867Z,32.57
2018-03-24T03:18:07.958Z,29.33
2018-03-24T03:20:36.309Z,32.67
2018-03-24T03:23:06.122Z,35.50
2018-03-24T03:25:34.487Z,36.13
2018-03-24T03:28:02.829Z,31.00
2018-03-24T03:30:31.158Z,34.07
2018-03-24T03:32:59.485Z,33.50
2018-03-24T03:35:27.851Z,32.83
2018-03-24T03:37:56.170Z,32.87
2018-03-24T03:40:24.791Z,33.80
2018-03-24T03:42:53.845Z,29.87
2018-03-24T03:45:22.188Z,32.83
2018-03-24T03:47:50.543Z,37.27
2018-03-24T03:50:18.880Z,34.50
2018-03-24T03:52:47.198Z,36.67
2018-03-24T03:55:15.538Z,30.13
2018-03-24T03:57:43.890Z,36.90
2018-03-24T04:00:12.201Z,34.80
2018-03-24T04:02:40.536Z,33.93
2018-03-24T04:05:08.842Z,34.10
2018-03-24T04:07:37.197Z,36.60
2018-03-24T04:10:05.521Z,32.40
2018-03-24T04:12:34.939Z,32.40
2018-03-24T04:15:03.246Z,34.63
2018-03-24T04:17:31.579Z,35.57
2018-03-24T04:20:00.649Z,35.80
2018-03-24T04:22:29.058Z,36.60
2018-03-24T04:24:57.394Z,38.17
2018-03-24T04:27:25.729Z,35.70
2018-03-24T04:29:54.046Z,37.50
2018-03-24T04:32:22.388Z,32.10
2018-03-24T04:34:50.767Z,40.73
2018-03-24T04:37:19.107Z,37.07
2018-03-24T04:39:47.402Z,36.97
2018-03-24T04:42:15.759Z,36.47
2018-03-24T04:44:44.068Z,38.00
2018-03-24T04:47:12.414Z,35.80
2018-03-24T04:49:40.802Z,36.10
2018-03-24T04:52:09.170Z,37.87
2018-03-24T04:54:38.251Z,35.40
2018-03-24T04:57:06.570Z,32.40
2018-03-24T04:59:34.914Z,34.77
2018-03-24T05:02:04.002Z,35.20
2018-03-24T05:04:33.113Z,39.80
2018-03-24T05:07:02.212Z,32.97
2018-03-24T05:09:31.347Z,35.33
2018-03-24T05:11:59.679Z,31.87
2018-03-24T05:14:28.850Z,30.13
2018-03-24T05:16:57.169Z,34.63
2018-03-24T05:19:25.542Z,34.63
2018-03-24T05:21:54.618Z,34.00
2018-03-24T05:24:23.829Z,38.07
2018-03-24T05:26:52.926Z,39.10
2018-03-24T05:29:21.278Z,34.77
2018-03-24T05:31:50.406Z,35.57
2018-03-24T05:34:18.778Z,35.33
2018-03-24T05:36:47.214Z,30.30
2018-03-24T05:39:15.561Z,37.90
2018-03-24T05:41:43.863Z,39.10
2018-03-24T05:44:12.203Z,35.47
2018-03-24T05:46:40.550Z,35.47
2018-03-24T05:49:08.916Z,33.70
2018-03-24T05:51:38.006Z,35.57
2018-03-24T05:54:06.358Z,36.40
2018-03-24T05:56:34.693Z,40.37
2018-03-24T05:59:03.803Z,36.87
2018-03-24T06:01:32.102Z,36.57
2018-03-24T06:04:00.452Z,33.23
2018-03-24T06:06:28.785Z,38.73
2018-03-24T06:08:57.111Z,40.00
2018-03-24T06:11:25.450Z,43.50
2018-03-24T06:13:54.546Z,39.27
2018-03-24T06:16:22.940Z,37.03
2018-03-24T06:18:52.059Z,36.50
2018-03-24T06:21:20.398Z,36.30
2018-03-24T06:23:48.797Z,41.47
2018-03-24T06:26:17.898Z,34.83
2018-03-24T06:28:46.962Z,35.90
2018-03-24T06:31:17.915Z,38.80
2018-03-24T06:33:46.247Z,38.20
2018-03-24T06:36:16.059Z,38.10
2018-03-24T06:38:45.196Z,37.73
2018-03-24T06:41:14.303Z,40.37
2018-03-24T06:43:43.374Z,39.20
2018-03-24T06:46:11.716Z,41.10
2018-03-24T06:48:40.047Z,36.53
2018-03-24T06:51:09.146Z,40.10
2018-03-24T06:53:37.482Z,42.20
2018-03-24T06:56:05.839Z,41.47
2018-03-24T06:58:34.182Z,37.53
2018-03-24T07:01:03.298Z,42.37
2018-03-24T07:03:31.606Z,41.60
2018-03-24T07:05:59.903Z,41.17
2018-03-24T07:08:29.026Z,36.30
2018-03-24T07:10:57.346Z,41.10
2018-03-24T07:13:25.712Z,38.80
2018-03-24T07:15:54.030Z,38.47
2018-03-24T07:18:23.150Z,41.97
2018-03-24T07:20:51.494Z,37.67
2018-03-24T07:23:20.626Z,38.93
2018-03-24T07:25:48.940Z,40.43
2018-03-24T07:28:17.258Z,43.50
2018-03-24T07:30:46.370Z,37.70
2018-03-24T07:33:15.477Z,39.00
2018-03-24T07:35:43.786Z,41.37
2018-03-24T07:38:12.107Z,39.73
2018-03-24T07:40:41.178Z,38.67
2018-03-24T07:43:09.507Z,39.83
2018-03-24T07:45:37.826Z,43.50
2018-03-24T07:48:06.162Z,41.37
2018-03-24T07:50:34.731Z,38.77
2018-03-24T07:53:03.110Z,40.00
2018-03-24T07:55:31.791Z,40.10
2018-03-24T07:58:00.142Z,41.20
2018-03-24T08:00:29.242Z,40.80
2018-03-24T08:02:57.567Z,41.87
2018-03-24T08:05:25.878Z,40.83
2018-03-24T08:07:54.202Z,42.53
2018-03-24T08:10:22.572Z,46.40
2018-03-24T08:12:51.640Z,40.37
2018-03-24T08:15:20.755Z,39.73
2018-03-24T08:17:49.047Z,39.03
2018-03-24T08:20:17.418Z,38.47
2018-03-24T08:22:45.730Z,43.10
2018-03-24T08:25:14.383Z,40.03
2018-03-24T08:27:42.711Z,39.87
2018-03-24T08:30:11.060Z,40.13
2018-03-24T08:32:39.358Z,39.00
2018-03-24T08:35:07.708Z,38.70
2018-03-24T08:37:36.005Z,44.33
2018-03-24T08:40:04.350Z,41.63
2018-03-24T08:42:33.074Z,40.73
2018-03-24T08:45:01.414Z,41.63
2018-03-24T08:47:30.470Z,41.67
2018-03-24T08:49:59.582Z,44.03
2018-03-24T08:52:28.990Z,42.63
2018-03-24T08:54:58.143Z,42.53
2018-03-24T08:57:26.458Z,40.07
2018-03-24T08:59:54.859Z,41.63
2018-03-24T09:02:23.234Z,41.43
2018-03-24T09:04:51.569Z,41.37
2018-03-24T09:07:19.922Z,42.13
2018-03-24T09:09:48.299Z,42.93
2018-03-24T09:12:16.615Z,41.20
2018-03-24T09:14:45.717Z,41.60
2018-03-24T09:17:14.078Z,44.30
2018-03-24T09:19:43.186Z,41.43
2018-03-24T09:22:12.339Z,47.10
2018-03-24T09:24:40.878Z,46.00
2018-03-24T09:27:09.254Z,43.73
2018-03-24T09:29:38.556Z,41.27
2018-03-24T09:32:06.899Z,43.20
2018-03-24T09:34:35.994Z,38.60
2018-03-24T09:37:05.138Z,39.13
2018-03-24T09:39:33.454Z,40.70
2018-03-24T09:42:01.803Z,41.87
2018-03-24T09:44:30.126Z,40.80
2018-03-24T09:46:59.244Z,41.60
2018-03-24T09:49:27.561Z,38.20
2018-03-24T09:51:55.925Z,37.53
2018-03-24T09:54:24.333Z,41.83
2018-03-24T09:56:52.704Z,42.10
2018-03-24T09:59:21.059Z,40.07
2018-03-24T10:01:49.418Z,37.93
2018-03-24T10:04:18.492Z,41.30
2018-03-24T10:06:46.862Z,39.60
2018-03-24T10:09:15.954Z,40.97
2018-03-24T10:11:45.793Z,40.47
2018-03-24T10:14:14.171Z,36.53
2018-03-24T10:16:43.257Z,37.73
2018-03-24T10:19:11.631Z,37.03
2018-03-24T10:35:05.901Z,39.80
2018-03-24T10:37:39.873Z,32.13
2018-03-24T10:40:08.218Z,34.90
2018-03-24T10:42:36.538Z,33.23
2018-03-24T10:45:05.153Z,32.03
2018-03-24T10:47:34.218Z,33.60
2018-03-24T10:50:02.601Z,32.20
2018-03-24T10:52:30.914Z,30.70
2018-03-24T10:54:59.270Z,29.37
2018-03-24T10:57:28.358Z,28.73
2018-03-24T10:59:57.475Z,28.53
2018-03-24T11:02:25.787Z,22.47
2018-03-24T11:04:54.106Z,30.23
2018-03-24T11:07:24.246Z,25.00
2018-03-24T11:09:52.606Z,23.97
2018-03-24T11:12:20.992Z,23.03
2018-03-24T11:14:49.504Z,28.43
2018-03-24T11:17:17.830Z,24.90
2018-03-24T11:19:46.189Z,25.37
2018-03-24T11:22:14.507Z,25.13
2018-03-24T11:24:43.635Z,21.87
2018-03-24T11:27:11.991Z,22.73
2018-03-24T11:29:40.330Z,24.70
2018-03-24T11:32:08.691Z,22.50
2018-03-24T11:34:36.979Z,21.93
2018-03-24T11:37:05.391Z,23.27
2018-03-24T11:39:34.474Z,24.43
2018-03-24T11:42:03.612Z,23.33
2018-03-24T11:44:31.939Z,22.80
2018-03-24T11:47:00.310Z,19.43
2018-03-24T11:49:28.626Z,20.70
2018-03-24T11:51:57.306Z,23.07
2018-03-24T11:54:37.562Z,19.73
2018-03-24T11:57:06.663Z,21.80
2018-03-24T11:59:34.970Z,19.93
2018-03-24T12:02:03.351Z,22.53
2018-03-24T12:04:31.672Z,21.20
2018-03-24T12:07:00.019Z,19.43
2018-03-24T12:09:28.346Z,20.23
2018-03-24T12:11:56.690Z,19.60
2018-03-24T12:14:25.055Z,23.73
2018-03-24T12:16:53.446Z,23.00
2018-03-24T12:19:21.794Z,21.27
2018-03-24T12:21:50.147Z,19.73
2018-03-24T12:24:18.500Z,21.63
2018-03-24T12:26:46.868Z,21.03
2018-03-24T12:29:16.050Z,20.73
2018-03-24T12:31:44.975Z,17.37
2018-03-24T12:34:13.359Z,20.40
2018-03-24T12:36:42.432Z,20.03
2018-03-24T12:39:11.544Z,23.37
2018-03-24T12:41:39.854Z,19.90
2018-03-24T12:44:08.186Z,26.13
2018-03-24T12:46:37.302Z,26.27
2018-03-24T12:49:05.659Z,31.23
2018-03-24T12:51:34.744Z,27.03
2018-03-24T12:54:03.858Z,27.27
2018-03-24T12:56:32.207Z,24.77
2018-03-24T12:59:01.330Z,24.50
2018-03-24T13:01:29.678Z,26.47
2018-03-24T13:03:58.801Z,26.27
2018-03-24T13:06:27.866Z,24.93
2018-03-24T13:08:56.211Z,27.30
2018-03-24T13:11:24.555Z,24.23
2018-03-24T13:13:54.048Z,27.03
2018-03-24T13:16:23.123Z,35.60
2018-03-24T13:18:52.224Z,27.60
2018-03-24T13:21:20.542Z,32.20
2018-03-24T13:23:48.947Z,25.53
2018-03-24T13:26:17.263Z,23.10
2018-03-24T13:28:45.598Z,23.17
2018-03-24T13:31:13.955Z,24.30
2018-03-24T13:33:42.344Z,26.13
2018-03-24T13:36:10.646Z,25.03
2018-03-24T13:38:38.949Z,27.43
2018-03-24T13:41:08.063Z,24.73
2018-03-24T13:43:36.375Z,24.67
2018-03-24T13:46:05.122Z,29.60
2018-03-24T13:48:33.450Z,24.80
2018-03-24T13:51:01.878Z,30.00
2018-03-24T13:53:30.960Z,26.00
2018-03-24T13:56:00.066Z,27.30
2018-03-24T13:58:28.383Z,22.83
2018-03-24T14:00:56.718Z,24.80
2018-03-24T14:03:25.795Z,24.57
2018-03-24T14:05:54.914Z,26.33
2018-03-24T14:08:23.287Z,22.87
2018-03-24T14:10:51.648Z,25.07
2018-03-24T14:13:20.740Z,25.20
2018-03-24T14:15:49.856Z,28.77
2018-03-24T14:18:18.186Z,22.00
2018-03-24T14:20:46.549Z,24.40
2018-03-24T14:23:14.892Z,30.20
2018-03-24T14:25:43.267Z,23.90
2018-03-24T14:28:11.582Z,24.77
2018-03-24T14:30:39.914Z,25.07
2018-03-24T14:33:08.238Z,27.23
2018-03-24T14:35:36.595Z,22.40
2018-03-24T14:38:04.947Z,27.17
2018-03-24T14:40:33.298Z,25.73
2018-03-24T14:43:01.640Z,31.40
2018-03-24T14:45:30.286Z,26.13
2018-03-24T14:47:59.386Z,22.90
2018-03-24T14:50:27.694Z,28.20
2018-03-24T14:52:56.105Z,24.93
2018-03-24T14:55:24.430Z,21.63
2018-03-24T14:57:52.767Z,24.50
2018-03-24T15:00:22.101Z,24.33
2018-03-24T15:02:50.510Z,21.97
2018-03-24T15:05:18.990Z,23.00
2018-03-24T15:07:47.374Z,22.67
2018-03-24T15:10:16.607Z,25.57
2018-03-24T15:12:45.002Z,24.67
2018-03-24T15:15:13.472Z,26.63
2018-03-24T15:17:42.605Z,23.47
2018-03-24T15:20:10.926Z,22.73
2018-03-24T15:22:39.254Z,24.00
2018-03-24T15:25:08.612Z,23.00
2018-03-24T15:27:37.934Z,27.10
2018-03-24T15:30:18.195Z,22.70
2018-03-24T15:32:54.107Z,23.87
2018-03-24T15:35:38.192Z,25.53
2018-03-24T15:38:06.674Z,25.07
2018-03-24T15:40:34.997Z,27.93
2018-03-24T15:43:03.346Z,25.83
2018-03-24T15:45:32.498Z,24.70
2018-03-24T15:48:01.210Z,25.13
2018-03-24T15:50:29.536Z,25.77
2018-03-24T15:55:32.862Z,22.23
2018-03-24T15:58:01.229Z,22.23
2018-03-24T16:00:29.538Z,23.27
2018-03-24T16:02:58.614Z,23.43
2018-03-24T16:05:28.050Z,21.20
2018-03-24T16:07:56.370Z,22.57
2018-03-24T16:10:24.723Z,19.60
2018-03-24T16:12:53.798Z,20.53
2018-03-24T16:15:22.163Z,21.90
2018-03-24T16:17:50.449Z,20.67
2018-03-24T16:20:18.834Z,19.93
2018-03-24T16:22:47.416Z,21.87
2018-03-24T16:25:15.827Z,20.70
2018-03-24T16:27:44.957Z,21.20
2018-03-24T16:30:14.074Z,22.43
2018-03-24T16:32:42.484Z,20.70
2018-03-24T16:35:10.839Z,22.63
2018-03-24T16:37:39.245Z,20.63
2018-03-24T16:40:07.562Z,20.00
2018-03-24T16:42:36.660Z,20.77
2018-03-24T16:45:05.018Z,21.90
2018-03-24T16:47:33.330Z,18.17
2018-03-24T16:50:01.648Z,22.77
2018-03-24T16:52:29.991Z,19.77
2018-03-24T16:54:58.310Z,20.67
2018-03-24T16:57:26.674Z,20.07
2018-03-24T16:59:55.023Z,20.40
2018-03-24T17:02:24.130Z,19.20
2018-03-24T17:04:52.454Z,20.40
2018-03-24T17:07:20.806Z,20.70
2018-03-24T17:09:49.131Z,22.20
2018-03-24T17:12:18.246Z,21.80
2018-03-24T17:14:46.566Z,21.90
2018-03-24T17:17:14.926Z,20.87
2018-03-24T17:19:43.235Z,21.70
2018-03-24T17:22:11.590Z,22.30
2018-03-24T17:24:40.242Z,20.20
2018-03-24T17:27:09.918Z,22.57
2018-03-24T17:29:38.237Z,22.53
2018-03-24T17:32:13.207Z,19.83
2018-03-24T17:34:41.514Z,31.80
2018-03-24T17:37:09.854Z,28.40
2018-03-24T17:39:38.164Z,22.93
2018-03-24T17:42:06.610Z,22.67
2018-03-24T17:44:34.937Z,21.33
2018-03-24T17:47:03.258Z,20.73
2018-03-24T17:49:31.654Z,20.90
2018-03-24T17:51:59.922Z,20.27
2018-03-24T17:54:28.347Z,22.63
2018-03-24T17:56:56.683Z,20.93
2018-03-24T18:02:23.684Z,20.87
2018-03-24T18:07:50.829Z,21.43
2018-03-24T18:10:19.639Z,22.50
2018-03-24T18:12:47.975Z,21.33
2018-03-24T18:15:16.316Z,20.80
2018-03-24T18:17:44.730Z,22.70
2018-03-24T18:20:13.363Z,23.37
2018-03-24T18:22:42.004Z,20.33
2018-03-24T18:25:10.874Z,18.87
2018-03-24T18:27:39.415Z,20.70
2018-03-24T18:30:07.915Z,21.20
2018-03-24T18:32:36.402Z,19.93
2018-03-24T18:35:04.835Z,19.70
2018-03-24T18:37:33.254Z,19.43
2018-03-24T18:40:02.002Z,20.07
2018-03-24T18:42:30.361Z,21.77
2018-03-24T18:44:59.606Z,21.50
2018-03-24T18:47:27.934Z,19.23
2018-03-24T18:49:56.279Z,21.00
2018-03-24T18:52:24.620Z,22.90
2018-03-24T18:54:52.988Z,20.80
2018-03-24T18:57:22.173Z,22.97
2018-03-24T18:59:50.908Z,21.00
2018-03-24T19:02:19.254Z,23.13
2018-03-24T19:04:47.862Z,23.27
2018-03-24T19:07:16.205Z,22.90
2018-03-24T19:09:44.686Z,21.67
2018-03-24T19:12:13.010Z,19.87
2018-03-24T19:14:41.328Z,21.73
2018-03-24T19:17:10.941Z,24.20
2018-03-24T19:19:39.274Z,26.07
2018-03-24T19:22:07.726Z,26.43
2018-03-24T19:24:36.258Z,27.83
2018-03-24T19:27:04.957Z,29.10
2018-03-24T19:29:36.801Z,27.40
2018-03-24T19:32:05.636Z,24.40
2018-03-24T19:34:34.734Z,29.60
2018-03-24T19:37:04.055Z,25.30
2018-03-24T19:39:32.494Z,24.60
2018-03-24T19:42:01.958Z,23.87
2018-03-24T19:44:30.373Z,24.83
2018-03-24T19:46:59.394Z,26.43
2018-03-24T19:49:27.972Z,26.30
2018-03-24T19:51:56.310Z,26.10
2018-03-24T19:54:25.444Z,26.47
2018-03-24T19:56:53.916Z,30.03
2018-03-24T19:59:22.613Z,27.43
2018-03-24T20:01:51.099Z,25.07
2018-03-24T20:04:20.166Z,26.90
2018-03-24T20:06:48.623Z,25.67
2018-03-24T20:09:17.010Z,28.00
2018-03-24T20:11:45.310Z,24.00
2018-03-24T20:14:14.640Z,28.93
2018-03-24T20:16:43.318Z,29.97
2018-03-24T20:19:12.425Z,24.97
2018-03-24T20:21:40.852Z,25.97
2018-03-24T20:24:10.309Z,27.43
2018-03-24T20:26:38.641Z,25.43
2018-03-24T20:29:07.987Z,26.60
2018-03-24T20:31:37.043Z,21.63
2018-03-24T20:34:06.191Z,24.60
2018-03-24T20:36:34.689Z,25.57
2018-03-24T20:39:03.102Z,26.27
2018-03-24T20:41:32.410Z,23.47
2018-03-24T20:44:00.770Z,29.17
2018-03-24T20:46:29.128Z,25.40
2018-03-24T20:48:57.463Z,25.93
2018-03-24T20:51:27.027Z,25.00
2018-03-24T20:53:55.364Z,28.57
2018-03-24T20:56:23.822Z,27.93
2018-03-24T20:58:52.306Z,25.87
2018-03-24T21:01:21.869Z,26.37
2018-03-24T21:03:50.254Z,27.33
2018-03-24T21:06:18.665Z,29.00
2018-03-24T21:08:47.026Z,30.27
2018-03-24T21:11:15.814Z,28.13
2018-03-24T21:13:44.385Z,27.43
2018-03-24T21:16:13.621Z,24.50
2018-03-24T21:18:41.930Z,27.50
2018-03-24T21:21:10.391Z,27.67
2018-03-24T21:23:39.039Z,29.40
2018-03-24T21:26:07.476Z,30.37
2018-03-24T21:28:35.845Z,28.03
2018-03-24T21:31:04.295Z,29.83
2018-03-24T21:33:32.781Z,31.70
2018-03-24T21:36:01.180Z,29.40
2018-03-24T21:38:29.907Z,29.97
2018-03-24T21:40:59.022Z,27.73
2018-03-24T21:43:27.378Z,25.70
2018-03-24T21:45:55.798Z,24.93
2018-03-24T21:48:24.351Z,29.87
2018-03-24T21:50:52.980Z,29.03
2018-03-24T21:53:21.314Z,29.07
2018-03-24T21:55:49.925Z,26.93
2018-03-24T21:58:19.178Z,27.30
2018-03-24T22:00:47.526Z,22.87
2018-03-24T22:03:15.829Z,27.43
2018-03-24T22:05:44.347Z,28.27
2018-03-24T22:08:12.675Z,30.90
2018-03-24T22:10:42.532Z,26.20
2018-03-24T22:13:10.883Z,26.30
2018-03-24T22:15:39.274Z,26.40
2018-03-24T22:18:08.368Z,25.23
2018-03-24T22:20:37.446Z,28.50
2018-03-24T22:23:05.782Z,29.13
2018-03-24T22:25:34.082Z,30.80
2018-03-24T22:28:02.425Z,26.27
2018-03-24T22:30:31.683Z,29.77
2018-03-24T22:33:00.025Z,28.80
2018-03-24T22:35:28.358Z,28.80
2018-03-24T22:37:56.750Z,30.97
2018-03-24T22:40:25.063Z,27.60
2018-03-24T22:42:53.399Z,28.50
2018-03-24T22:45:21.754Z,27.73
2018-03-24T22:47:51.247Z,30.50
2018-03-24T22:50:19.594Z,30.03
2018-03-24T22:52:48.742Z,32.00
2018-03-24T22:55:17.814Z,31.87
2018-03-24T22:57:46.146Z,29.30
2018-03-24T23:00:14.480Z,30.17
2018-03-24T23:02:42.861Z,31.30
2018-03-24T23:05:11.154Z,33.53
2018-03-24T23:07:39.502Z,28.90
2018-03-24T23:10:07.806Z,30.43
2018-03-24T23:12:36.165Z,30.07
2018-03-24T23:15:04.497Z,31.10
2018-03-24T23:17:32.870Z,31.03
2018-03-24T23:20:01.259Z,33.37
2018-03-24T23:22:29.634Z,34.83
2018-03-24T23:24:57.957Z,36.20
2018-03-24T23:27:26.281Z,36.37
2018-03-24T23:29:54.649Z,36.33
2018-03-24T23:32:22.942Z,35.17
2018-03-24T23:34:52.189Z,38.27
2018-03-24T23:37:20.533Z,36.73
2018-03-24T23:39:49.769Z,38.77
2018-03-24T23:42:18.838Z,37.53
2018-03-24T23:44:48.338Z,38.17
2018-03-24T23:47:16.685Z,36.83
2018-03-24T23:49:45.814Z,36.90
2018-03-24T23:52:15.037Z,35.07
2018-03-24T23:54:43.437Z,35.23
2018-03-24T23:57:11.750Z,38.60
2018-03-24T23:59:40.153Z,39.40
